Time;durP1;ratioP1;P1;durP2;ratioP2;P2;SDS_P1;SDS_P2;PMS_P1;PMS_P2;Temp;Humidity;BMP_temperature;BMP_pressure;BME280_temperature;BME280_humidity;BME280_pressure;Samples;Min_cycle;Max_cycle;Signal;HPM_P1;HPM_P2
2023/06/11 00:01:19;;;;;;;14.40;13.30;;;22.00;98.70;;;;;;4936914;29;20414;-59
2023/06/11 00:03:52;;;;;;;16.00;14.70;;;22.00;98.50;;;;;;4935962;29;21006;-59
2023/06/11 00:06:23;;;;;;;14.53;13.40;;;22.00;99.20;;;;;;4940462;29;20439;-59
2023/06/11 00:08:54;;;;;;;14.80;13.57;;;22.00;99.70;;;;;;4954567;29;20413;-59
2023/06/11 00:11:21;;;;;;;14.90;13.80;;;21.90;99.90;;;;;;4956532;28;20820;-59
2023/06/11 00:13:48;;;;;;;15.50;14.20;;;21.90;99.90;;;;;;4955666;28;20444;-59
2023/06/11 00:16:14;;;;;;;14.37;13.27;;;21.90;99.90;;;;;;4954049;28;20471;-59
2023/06/11 00:18:41;;;;;;;14.70;13.50;;;21.80;99.90;;;;;;4955404;28;20948;-59
2023/06/11 00:21:12;;;;;;;14.50;13.30;;;21.80;99.90;;;;;;4955745;29;20464;-59
2023/06/11 00:23:38;;;;;;;15.57;14.33;;;21.80;99.90;;;;;;4956751;29;20408;-59
2023/06/11 00:26:07;;;;;;;14.83;13.73;;;21.70;99.90;;;;;;4938532;29;20901;-59
2023/06/11 00:28:34;;;;;;;15.83;14.63;;;21.70;99.90;;;;;;4954423;29;20431;-59
2023/06/11 00:31:00;;;;;;;15.77;14.57;;;21.70;99.90;;;;;;4955638;28;20421;-59
2023/06/11 00:33:27;;;;;;;15.10;14.00;;;21.60;99.90;;;;;;4955208;28;20519;-59
2023/06/11 00:35:53;;;;;;;15.10;13.90;;;21.60;99.90;;;;;;4955904;29;20464;-59
2023/06/11 00:38:20;;;;;;;15.33;13.77;;;21.60;99.90;;;;;;4953997;29;20508;-59
2023/06/11 00:40:46;;;;;;;16.10;14.40;;;21.60;99.90;;;;;;4955679;28;20996;-60
2023/06/11 00:43:12;;;;;;;14.93;13.83;;;21.50;99.90;;;;;;4954844;28;20462;-59
2023/06/11 00:45:38;;;;;;;16.33;15.03;;;21.50;99.90;;;;;;4955405;29;20527;-59
2023/06/11 00:48:05;;;;;;;15.87;14.37;;;21.50;99.90;;;;;;4953790;28;20698;-59
2023/06/11 00:50:34;;;;;;;16.50;14.97;;;21.50;99.90;;;;;;4955770;28;20259;-59
2023/06/11 00:53:00;;;;;;;16.80;15.17;;;21.40;99.90;;;;;;4954595;28;20437;-59
2023/06/11 00:55:27;;;;;;;15.80;14.50;;;21.40;99.90;;;;;;4955637;28;20464;-59
2023/06/11 00:57:53;;;;;;;16.30;14.93;;;21.40;99.90;;;;;;4955624;28;20420;-59
2023/06/11 01:00:20;;;;;;;16.00;14.60;;;21.20;99.90;;;;;;4955270;29;20419;-59
2023/06/11 01:02:57;;;;;;;16.50;15.20;;;21.20;99.90;;;;;;4955508;28;20192;-60
2023/06/11 01:05:24;;;;;;;17.23;15.87;;;21.20;99.90;;;;;;4955542;28;20463;-59
2023/06/11 01:07:55;;;;;;;15.77;14.47;;;21.20;99.90;;;;;;4954842;29;20793;-60
2023/06/11 01:10:21;;;;;;;17.00;15.60;;;21.20;99.90;;;;;;4954962;29;20810;-59
2023/06/11 01:12:48;;;;;;;16.30;14.50;;;21.20;99.90;;;;;;4955563;28;20417;-59
2023/06/11 01:15:14;;;;;;;16.37;15.07;;;21.20;99.90;;;;;;4953743;28;20813;-59
2023/06/11 01:18:22;;;;;;;16.50;15.20;;;21.20;99.90;;;;;;4954588;28;20503;-59
2023/06/11 01:20:56;;;;;;;16.57;15.13;;;21.10;99.90;;;;;;4895904;29;20435;-59
2023/06/11 01:23:34;;;;;;;16.40;15.10;;;21.10;99.90;;;;;;4896131;29;20482;-59
2023/06/11 01:26:00;;;;;;;16.40;15.10;;;21.10;99.90;;;;;;4932826;28;20433;-59
2023/06/11 01:28:31;;;;;;;16.73;15.37;;;21.10;99.90;;;;;;4955135;28;20423;-59
2023/06/11 01:30:59;;;;;;;17.13;15.83;;;21.00;99.90;;;;;;4953555;28;20429;-59
2023/06/11 01:33:26;;;;;;;16.10;14.80;;;21.00;99.90;;;;;;4954989;28;20779;-59
2023/06/11 01:35:58;;;;;;;15.50;14.20;;;21.00;99.90;;;;;;4954960;28;20488;-59
2023/06/11 01:38:25;;;;;;;15.20;14.00;;;21.00;99.90;;;;;;4954010;28;20436;-59
2023/06/11 01:40:55;;;;;;;16.10;14.63;;;21.00;99.90;;;;;;4954910;28;20436;-59
2023/06/11 01:43:23;;;;;;;16.13;14.70;;;21.00;99.90;;;;;;4953514;28;20479;-59
2023/06/11 01:45:49;;;;;;;15.60;14.50;;;21.00;99.90;;;;;;4953995;28;20437;-59
2023/06/11 01:48:15;;;;;;;15.47;14.40;;;21.00;99.90;;;;;;4953040;29;20924;-59
2023/06/11 01:50:41;;;;;;;16.53;15.23;;;20.90;99.90;;;;;;4952730;28;20836;-59
2023/06/11 01:53:06;;;;;;;14.63;13.60;;;20.90;99.90;;;;;;4953236;28;20527;-59
2023/06/11 01:55:32;;;;;;;16.03;14.73;;;20.90;99.90;;;;;;4954705;28;20357;-59
2023/06/11 01:57:58;;;;;;;15.97;14.60;;;20.90;99.90;;;;;;4954382;29;20251;-59
2023/06/11 02:00:24;;;;;;;15.80;14.60;;;20.80;99.90;;;;;;4953554;29;20181;-59
2023/06/11 02:02:50;;;;;;;15.20;14.00;;;20.90;99.90;;;;;;4954426;28;20782;-59
2023/06/11 02:05:16;;;;;;;14.90;13.70;;;20.90;99.90;;;;;;4954144;28;20441;-59
2023/06/11 02:07:42;;;;;;;15.50;14.17;;;20.90;99.90;;;;;;4954061;28;20189;-59
2023/06/11 02:10:08;;;;;;;14.97;13.87;;;20.90;99.90;;;;;;4953010;29;20625;-59
2023/06/11 02:12:35;;;;;;;15.53;14.33;;;20.90;99.90;;;;;;4954377;28;20268;-59
2023/06/11 02:15:00;;;;;;;15.73;14.23;;;20.90;99.90;;;;;;4952895;28;20444;-59
2023/06/11 02:17:26;;;;;;;15.60;14.20;;;20.90;99.90;;;;;;4954525;28;20417;-59
2023/06/11 02:19:52;;;;;;;14.77;13.40;;;20.90;99.90;;;;;;4954539;28;20688;-59
2023/06/11 02:22:17;;;;;;;14.90;13.60;;;20.90;99.90;;;;;;4952936;28;20187;-59
2023/06/11 02:24:43;;;;;;;15.40;14.00;;;20.90;99.90;;;;;;4954526;29;20180;-59
2023/06/11 02:27:09;;;;;;;16.17;14.47;;;20.90;99.90;;;;;;4953853;28;20269;-59
2023/06/11 02:29:35;;;;;;;15.33;14.03;;;20.80;99.90;;;;;;4953771;28;20185;-59
2023/06/11 02:32:01;;;;;;;15.03;13.63;;;20.80;99.90;;;;;;4953510;29;20467;-59
2023/06/11 02:34:27;;;;;;;14.50;13.30;;;20.80;99.90;;;;;;4953797;28;20196;-59
2023/06/11 02:36:52;;;;;;;15.37;14.10;;;20.70;99.90;;;;;;4953591;29;20205;-59
2023/06/11 02:39:18;;;;;;;15.37;13.50;;;20.70;99.90;;;;;;4955785;28;20169;-59
2023/06/11 02:41:44;;;;;;;14.60;13.50;;;20.70;99.90;;;;;;4958276;28;20690;-59
2023/06/11 02:44:09;;;;;;;15.10;13.90;;;20.70;99.90;;;;;;4957100;28;20238;-59
2023/06/11 02:46:35;;;;;;;14.87;13.53;;;20.70;99.90;;;;;;4958069;28;20550;-59
2023/06/11 02:49:01;;;;;;;15.23;14.03;;;20.70;99.90;;;;;;4957890;29;20177;-59
2023/06/11 02:51:27;;;;;;;14.63;13.43;;;20.70;99.90;;;;;;4957090;29;20268;-59
2023/06/11 02:53:52;;;;;;;14.60;13.50;;;20.60;99.90;;;;;;4957698;29;20405;-59
2023/06/11 02:56:18;;;;;;;14.50;13.20;;;20.60;99.90;;;;;;4956532;28;20209;-59
2023/06/11 02:58:44;;;;;;;14.83;13.60;;;20.60;99.90;;;;;;4957842;28;20177;-59
2023/06/11 03:01:10;;;;;;;15.30;14.07;;;20.50;99.90;;;;;;4957447;28;20196;-59
2023/06/11 03:03:36;;;;;;;16.27;14.97;;;20.40;99.90;;;;;;4958043;28;20499;-59
2023/06/11 03:06:02;;;;;;;15.30;14.10;;;20.40;99.90;;;;;;4956734;28;20917;-59
2023/06/11 03:08:28;;;;;;;16.73;15.23;;;20.40;99.90;;;;;;4957649;29;20255;-59
2023/06/11 03:10:54;;;;;;;15.80;14.50;;;20.30;99.90;;;;;;4957364;29;20408;-59
2023/06/11 03:13:20;;;;;;;16.13;14.67;;;20.30;99.90;;;;;;4956582;28;20228;-59
2023/06/11 03:15:46;;;;;;;15.37;14.07;;;20.20;99.90;;;;;;4957383;29;20464;-59
2023/06/11 03:18:12;;;;;;;15.70;14.40;;;20.20;99.90;;;;;;4955364;29;20625;-59
2023/06/11 03:20:37;;;;;;;15.50;14.27;;;20.20;99.90;;;;;;4955855;28;20616;-59
2023/06/11 03:23:03;;;;;;;14.87;13.73;;;20.20;99.90;;;;;;4957109;29;20405;-59
2023/06/11 03:25:29;;;;;;;15.60;14.40;;;20.10;99.90;;;;;;4957468;28;20177;-59
2023/06/11 03:27:55;;;;;;;16.43;15.13;;;20.10;99.90;;;;;;4956248;28;20424;-59
2023/06/11 03:30:23;;;;;;;16.07;14.77;;;20.10;99.90;;;;;;4956655;28;20184;-59
2023/06/11 03:32:48;;;;;;;15.27;13.97;;;20.10;99.90;;;;;;4957231;28;20180;-59
2023/06/11 03:35:16;;;;;;;14.83;13.27;;;20.10;99.90;;;;;;4956287;28;20417;-59
2023/06/11 03:37:42;;;;;;;15.30;14.10;;;20.20;99.90;;;;;;4956667;28;20213;-59
2023/06/11 03:40:08;;;;;;;15.70;14.50;;;20.20;99.90;;;;;;4956427;28;20911;-59
2023/06/11 03:42:34;;;;;;;14.70;13.57;;;20.20;99.90;;;;;;4957321;28;20196;-59
2023/06/11 03:45:00;;;;;;;14.73;13.63;;;20.20;99.90;;;;;;4956577;29;20484;-59
2023/06/11 03:47:26;;;;;;;15.43;14.23;;;20.20;99.90;;;;;;4956292;29;20181;-59
2023/06/11 03:49:51;;;;;;;15.57;14.20;;;20.20;99.90;;;;;;4955071;28;20227;-59
2023/06/11 03:52:17;;;;;;;15.70;14.47;;;20.20;99.90;;;;;;4955772;28;20194;-59
2023/06/11 03:54:43;;;;;;;16.00;14.70;;;20.10;99.90;;;;;;4956485;29;20584;-59
2023/06/11 03:57:10;;;;;;;15.03;13.80;;;20.20;99.90;;;;;;4956140;28;20456;-59
2023/06/11 03:59:35;;;;;;;14.80;13.60;;;20.20;99.90;;;;;;4955712;28;20185;-59
2023/06/11 04:02:01;;;;;;;15.40;13.67;;;20.30;99.90;;;;;;4956755;28;20949;-59
2023/06/11 04:04:27;;;;;;;14.93;13.80;;;20.30;99.90;;;;;;4955566;28;20188;-59
2023/06/11 04:06:53;;;;;;;15.30;13.90;;;20.30;99.90;;;;;;4955506;29;20535;-59
2023/06/11 04:09:21;;;;;;;16.60;15.40;;;20.30;99.90;;;;;;4955136;29;20213;-59
2023/06/11 04:11:47;;;;;;;16.47;15.17;;;20.30;99.90;;;;;;4956510;28;20409;-59
2023/06/11 04:14:12;;;;;;;15.77;14.57;;;20.30;99.90;;;;;;4955201;28;20487;-59
2023/06/11 04:16:38;;;;;;;15.80;14.50;;;20.30;99.90;;;;;;4956184;29;20622;-59
2023/06/11 04:19:04;;;;;;;15.07;13.77;;;20.30;99.90;;;;;;4955448;29;20681;-60
2023/06/11 04:21:30;;;;;;;15.20;14.00;;;20.30;99.90;;;;;;4954849;28;20232;-59
2023/06/11 04:23:55;;;;;;;15.50;14.37;;;20.40;99.90;;;;;;4956425;29;20177;-59
2023/06/11 04:26:23;;;;;;;14.33;13.33;;;20.40;99.90;;;;;;4955698;28;20656;-59
2023/06/11 04:28:50;;;;;;;15.30;14.10;;;20.40;99.90;;;;;;4956311;28;20535;-59
2023/06/11 04:31:16;;;;;;;15.60;14.20;;;20.40;99.90;;;;;;4955542;28;20423;-59
2023/06/11 04:33:42;;;;;;;14.97;13.80;;;20.40;99.90;;;;;;4955295;29;20515;-60
2023/06/11 04:36:09;;;;;;;15.67;14.50;;;20.40;99.90;;;;;;4955506;28;20259;-59
2023/06/11 04:38:37;;;;;;;17.10;15.73;;;20.40;99.90;;;;;;4955294;28;20405;-59
2023/06/11 04:41:05;;;;;;;16.93;15.53;;;20.50;99.90;;;;;;4954902;28;20409;-59
2023/06/11 04:43:34;;;;;;;18.03;16.63;;;20.50;99.90;;;;;;4955201;28;20461;-59
2023/06/11 04:46:03;;;;;;;19.13;17.70;;;20.50;99.90;;;;;;4955587;28;20857;-59
2023/06/11 04:48:31;;;;;;;18.27;16.77;;;20.50;99.90;;;;;;4952602;28;20440;-59
2023/06/11 04:51:00;;;;;;;18.57;17.07;;;20.60;99.90;;;;;;4955697;28;20444;-59
2023/06/11 04:53:29;;;;;;;17.77;16.17;;;20.60;99.90;;;;;;4955148;29;20409;-59
2023/06/11 04:55:57;;;;;;;18.00;16.50;;;20.60;99.90;;;;;;4955661;29;20464;-59
2023/06/11 04:58:24;;;;;;;18.43;16.93;;;20.70;99.90;;;;;;4952230;29;20924;-59
2023/06/11 05:00:51;;;;;;;18.83;17.33;;;20.70;99.90;;;;;;4953320;28;20479;-59
2023/06/11 05:03:17;;;;;;;18.00;16.60;;;20.70;99.90;;;;;;4953506;28;20428;-59
2023/06/11 05:05:49;;;;;;;18.97;17.27;;;20.70;99.90;;;;;;4951372;29;21852;-59
2023/06/11 05:08:25;;;;;;;17.30;15.87;;;20.70;99.90;;;;;;4954145;28;20899;-57
2023/06/11 05:10:51;;;;;;;17.67;15.63;;;20.80;99.90;;;;;;4955499;29;20396;-57
2023/06/11 05:13:22;;;;;;;16.67;15.17;;;20.80;99.90;;;;;;4953484;29;20502;-60
2023/06/11 05:15:48;;;;;;;16.33;15.23;;;20.90;99.90;;;;;;4954815;28;20552;-58
2023/06/11 05:18:14;;;;;;;16.20;14.93;;;20.90;99.90;;;;;;4951727;28;20512;-57
2023/06/11 05:20:40;;;;;;;16.00;14.80;;;21.00;99.90;;;;;;4954520;28;20424;-57
2023/06/11 05:23:06;;;;;;;17.03;15.43;;;21.00;99.90;;;;;;4954332;28;20829;-57
2023/06/11 05:25:32;;;;;;;17.90;16.50;;;21.10;99.90;;;;;;4953935;29;20444;-58
2023/06/11 05:28:02;;;;;;;18.77;16.93;;;21.10;99.90;;;;;;4955148;28;20188;-58
2023/06/11 05:30:33;;;;;;;18.67;17.17;;;21.10;99.90;;;;;;4954252;28;20185;-58
2023/06/11 05:32:59;;;;;;;20.77;19.17;;;21.20;99.90;;;;;;4955104;28;20492;-58
2023/06/11 05:35:25;;;;;;;19.83;18.33;;;21.20;99.90;;;;;;4952160;28;20556;-58
2023/06/11 05:37:51;;;;;;;20.80;19.20;;;21.30;99.90;;;;;;4953501;28;20188;-58
2023/06/11 05:40:17;;;;;;;20.93;18.67;;;21.30;99.90;;;;;;4951568;29;20439;-58
2023/06/11 05:42:43;;;;;;;20.03;18.50;;;21.40;99.90;;;;;;4954869;28;20504;-58
2023/06/11 05:45:09;;;;;;;20.00;18.20;;;21.40;99.90;;;;;;4954309;29;20346;-58
2023/06/11 05:47:35;;;;;;;19.00;17.50;;;21.50;99.90;;;;;;4953318;28;20268;-58
2023/06/11 05:50:00;;;;;;;17.93;16.53;;;21.50;99.90;;;;;;4954720;29;20197;-58
2023/06/11 05:52:27;;;;;;;22.87;20.67;;;21.60;99.90;;;;;;4954164;29;20460;-58
2023/06/11 05:54:52;;;;;;;25.80;23.50;;;21.70;99.90;;;;;;4954817;29;20173;-58
2023/06/11 05:57:24;;;;;;;18.47;17.03;;;21.70;99.90;;;;;;4953393;29;20478;-57
2023/06/11 05:59:51;;;;;;;16.60;15.30;;;21.80;99.90;;;;;;4953945;28;20856;-58
2023/06/11 06:02:17;;;;;;;17.53;15.70;;;21.90;99.90;;;;;;4953492;29;20513;-56
2023/06/11 06:04:49;;;;;;;16.57;15.10;;;22.00;99.90;;;;;;4953444;28;20515;-57
2023/06/11 06:07:16;;;;;;;16.83;15.40;;;22.10;99.90;;;;;;4952463;28;20528;-58
2023/06/11 06:09:42;;;;;;;16.10;14.80;;;22.10;99.90;;;;;;4954504;28;20423;-58
2023/06/11 06:12:08;;;;;;;15.27;14.03;;;22.20;99.90;;;;;;4953043;29;20435;-57
2023/06/11 06:14:35;;;;;;;14.30;13.20;;;22.30;99.90;;;;;;4952354;28;20768;-58
2023/06/11 06:17:00;;;;;;;14.97;13.77;;;22.30;99.90;;;;;;4954314;28;20464;-58
2023/06/11 06:19:26;;;;;;;15.57;14.40;;;22.40;99.90;;;;;;4952070;29;20952;-58
2023/06/11 06:21:52;;;;;;;15.27;14.07;;;22.50;99.90;;;;;;4954406;28;20579;-58
2023/06/11 06:24:17;;;;;;;15.50;14.40;;;22.60;99.90;;;;;;4952939;29;20231;-58
2023/06/11 06:26:43;;;;;;;14.40;13.30;;;22.70;99.90;;;;;;4954597;28;20223;-58
2023/06/11 06:29:12;;;;;;;16.93;15.23;;;22.70;99.90;;;;;;4954064;28;20185;-58
2023/06/11 06:31:40;;;;;;;16.97;15.20;;;22.80;99.90;;;;;;4952720;28;20429;-58
2023/06/11 06:34:07;;;;;;;14.83;13.63;;;22.90;99.90;;;;;;4949547;28;20424;-58
2023/06/11 06:36:33;;;;;;;15.57;14.27;;;22.90;99.90;;;;;;4953005;28;20534;-58
2023/06/11 06:38:59;;;;;;;15.17;13.50;;;23.00;99.90;;;;;;4952129;29;20463;-58
2023/06/11 06:41:24;;;;;;;14.10;13.10;;;23.10;99.90;;;;;;4953466;29;20500;-58
2023/06/11 06:43:50;;;;;;;15.20;14.00;;;23.20;99.90;;;;;;4951730;28;20287;-61
2023/06/11 06:46:16;;;;;;;14.07;12.73;;;23.20;99.90;;;;;;4953678;28;20185;-60
2023/06/11 06:48:42;;;;;;;14.00;12.70;;;23.20;99.90;;;;;;4954228;29;20252;-59
2023/06/11 06:51:07;;;;;;;16.80;15.50;;;23.30;99.90;;;;;;4954239;28;20177;-59
2023/06/11 06:53:33;;;;;;;14.43;13.07;;;23.20;99.90;;;;;;4952631;28;20216;-59
2023/06/11 06:56:00;;;;;;;13.30;12.20;;;23.30;99.90;;;;;;4952528;29;20213;-59
2023/06/11 06:58:28;;;;;;;13.60;12.30;;;23.40;98.60;;;;;;4952400;29;20181;-58
2023/06/11 07:00:55;;;;;;;13.87;11.73;;;23.40;97.40;;;;;;4952979;29;20421;-58
2023/06/11 07:03:21;;;;;;;12.03;11.13;;;23.50;97.30;;;;;;4952479;28;20433;-59
2023/06/11 07:05:47;;;;;;;11.83;11.00;;;23.60;95.40;;;;;;4951609;29;20873;-58
2023/06/11 07:08:13;;;;;;;11.80;11.00;;;23.80;95.20;;;;;;4953843;29;20432;-58
2023/06/11 07:10:47;;;;;;;12.30;10.67;;;23.80;93.90;;;;;;4953550;28;20483;-64
2023/06/11 07:13:13;;;;;;;11.83;11.03;;;23.90;92.10;;;;;;4951814;29;20464;-60
2023/06/11 07:15:39;;;;;;;11.50;10.50;;;23.90;92.60;;;;;;4951799;29;20991;-60
2023/06/11 07:18:05;;;;;;;11.10;10.30;;;24.00;92.80;;;;;;4952128;29;20208;-60
2023/06/11 07:20:30;;;;;;;13.33;12.33;;;24.10;93.10;;;;;;4950799;29;20188;-60
2023/06/11 07:22:59;;;;;;;11.27;10.47;;;24.20;93.30;;;;;;4949825;29;20244;-60
2023/06/11 07:25:28;;;;;;;10.63;9.73;;;24.30;91.50;;;;;;4952178;28;20176;-60
2023/06/11 07:27:54;;;;;;;12.50;11.63;;;24.40;90.50;;;;;;4952436;28;20463;-60
2023/06/11 07:30:20;;;;;;;10.77;9.97;;;24.50;91.10;;;;;;4951267;29;20969;-60
2023/06/11 07:32:46;;;;;;;11.97;10.97;;;24.60;90.80;;;;;;4957028;29;20429;-60
2023/06/11 07:35:12;;;;;;;12.70;11.40;;;24.70;90.20;;;;;;4957015;28;20617;-60
2023/06/11 07:37:41;;;;;;;10.80;10.00;;;24.70;90.60;;;;;;4954858;28;20573;-59
2023/06/11 07:40:07;;;;;;;10.70;9.90;;;24.80;90.40;;;;;;4956909;29;20425;-60
2023/06/11 07:42:33;;;;;;;11.40;10.60;;;25.00;89.80;;;;;;4955548;28;20820;-60
2023/06/11 07:44:58;;;;;;;10.87;10.07;;;25.10;87.40;;;;;;4956727;28;20461;-59
2023/06/11 07:47:24;;;;;;;11.90;11.00;;;25.20;87.70;;;;;;4956185;29;20177;-59
2023/06/11 07:49:50;;;;;;;11.40;10.60;;;25.30;90.30;;;;;;4955756;29;20227;-60
2023/06/11 07:52:16;;;;;;;10.27;9.67;;;25.50;89.00;;;;;;4956759;29;20417;-59
2023/06/11 07:54:42;;;;;;;11.07;10.20;;;25.60;89.40;;;;;;4956204;29;20224;-60
2023/06/11 07:57:08;;;;;;;64.43;54.17;;;25.80;86.60;;;;;;4971577;28;20225;-59
2023/06/11 07:59:36;;;;;;;16.67;15.17;;;25.80;84.70;;;;;;4956244;28;20480;-59
2023/06/11 08:02:03;;;;;;;12.70;11.80;;;25.90;84.00;;;;;;4956491;28;20416;-60
2023/06/11 08:04:28;;;;;;;12.03;11.10;;;26.00;84.30;;;;;;4955893;29;20434;-60
2023/06/11 08:06:54;;;;;;;10.50;9.70;;;26.10;84.70;;;;;;4956604;29;20424;-59
2023/06/11 08:09:20;;;;;;;21.60;19.70;;;26.20;84.30;;;;;;4956432;28;20610;-60
2023/06/11 08:11:46;;;;;;;90.77;69.17;;;26.30;81.90;;;;;;4956293;28;20185;-60
2023/06/11 08:14:12;;;;;;;15.20;13.80;;;26.40;81.80;;;;;;4956492;29;20409;-59
2023/06/11 08:16:38;;;;;;;12.57;11.47;;;26.50;81.60;;;;;;4955832;28;20456;-60
2023/06/11 08:19:04;;;;;;;11.40;10.57;;;26.60;84.40;;;;;;4955719;28;20705;-63
2023/06/11 08:21:29;;;;;;;11.77;11.00;;;26.80;84.30;;;;;;4955789;29;20173;-60
2023/06/11 08:23:56;;;;;;;11.00;10.30;;;26.90;84.30;;;;;;4956350;28;20188;-60
2023/06/11 08:26:21;;;;;;;10.70;10.00;;;27.00;79.20;;;;;;4955485;28;20547;-59
2023/06/11 08:28:47;;;;;;;10.10;9.40;;;26.80;78.90;;;;;;4956066;29;20405;-60
2023/06/11 08:31:14;;;;;;;11.30;10.50;;;26.70;80.60;;;;;;4953528;29;20951;-60
2023/06/11 08:33:42;;;;;;;9.97;9.20;;;26.70;81.40;;;;;;4954255;29;20177;-60
2023/06/11 08:36:08;;;;;;;9.30;8.60;;;26.80;79.20;;;;;;4955426;28;20460;-60
2023/06/11 08:38:34;;;;;;;9.00;8.40;;;26.80;76.20;;;;;;4955390;28;20417;-60
2023/06/11 08:41:00;;;;;;;9.67;8.90;;;26.80;76.10;;;;;;4955741;28;20268;-60
2023/06/11 08:43:25;;;;;;;9.70;9.10;;;26.80;73.80;;;;;;4954288;28;20225;-60
2023/06/11 08:45:51;;;;;;;9.83;9.03;;;26.90;75.00;;;;;;4955943;29;20173;-60
2023/06/11 08:48:21;;;;;;;10.13;9.27;;;27.00;77.00;;;;;;4955842;29;20181;-60
2023/06/11 08:50:50;;;;;;;11.53;10.63;;;27.10;75.00;;;;;;4955276;28;20251;-60
2023/06/11 08:53:17;;;;;;;10.30;9.60;;;27.20;76.20;;;;;;4953781;29;20509;-60
2023/06/11 08:55:44;;;;;;;115.40;103.27;;;27.30;73.70;;;;;;4954037;28;20456;-60
2023/06/11 08:58:11;;;;;;;12.07;10.90;;;27.20;73.10;;;;;;4954522;28;20456;-60
2023/06/11 09:00:38;;;;;;;10.50;9.80;;;27.30;72.60;;;;;;4952847;29;20437;-60
2023/06/11 09:03:04;;;;;;;9.47;8.80;;;27.40;76.00;;;;;;4955166;28;20413;-60
2023/06/11 09:05:33;;;;;;;10.70;9.70;;;27.50;73.30;;;;;;4954912;28;20421;-60
2023/06/11 09:07:58;;;;;;;10.50;9.70;;;27.60;73.90;;;;;;4955699;28;20778;-61
2023/06/11 09:10:24;;;;;;;10.43;9.63;;;27.70;72.50;;;;;;4954966;28;20473;-60
2023/06/11 09:12:54;;;;;;;9.70;8.80;;;27.80;70.10;;;;;;4953103;28;20193;-62
2023/06/11 09:15:20;;;;;;;10.80;10.10;;;27.90;69.90;;;;;;4954020;29;20196;-60
2023/06/11 09:17:46;;;;;;;9.90;9.20;;;28.00;70.00;;;;;;4952178;28;20428;-60
2023/06/11 09:20:14;;;;;;;11.10;10.10;;;28.00;68.30;;;;;;4954726;28;20180;-60
2023/06/11 09:22:42;;;;;;;11.10;10.40;;;28.10;67.20;;;;;;4954070;28;20409;-60
2023/06/11 09:25:10;;;;;;;10.43;9.73;;;28.20;68.00;;;;;;4955373;28;20404;-60
2023/06/11 09:27:39;;;;;;;10.60;9.90;;;28.30;69.10;;;;;;4954313;28;21001;-61
2023/06/11 09:30:12;;;;;;;333.00;286.77;;;28.30;65.30;;;;;;4955091;28;20409;-61
2023/06/11 09:32:39;;;;;;;84.63;75.83;;;28.30;70.50;;;;;;4954818;28;20429;-61
2023/06/11 09:35:09;;;;;;;13.30;12.20;;;28.60;69.50;;;;;;4953426;28;20479;-60
2023/06/11 09:37:39;;;;;;;10.40;9.70;;;28.70;68.00;;;;;;4954463;29;20460;-61
2023/06/11 09:40:08;;;;;;;10.90;10.10;;;28.80;64.80;;;;;;4954945;28;20845;-61
2023/06/11 09:42:34;;;;;;;11.37;10.50;;;28.80;64.70;;;;;;4954524;28;20417;-60
2023/06/11 09:45:00;;;;;;;10.53;9.83;;;28.90;67.00;;;;;;4955069;28;20514;-61
2023/06/11 09:47:30;;;;;;;10.60;9.90;;;29.00;64.30;;;;;;4954181;28;20580;-60
2023/06/11 09:50:02;;;;;;;21.33;11.10;;;29.00;65.10;;;;;;4954670;29;20400;-61
2023/06/11 09:52:28;;;;;;;11.43;10.70;;;29.20;66.00;;;;;;4954221;28;20500;-60
2023/06/11 09:54:55;;;;;;;11.47;10.70;;;29.30;66.10;;;;;;4954988;29;20461;-61
2023/06/11 09:57:21;;;;;;;11.30;10.60;;;29.20;63.30;;;;;;4954705;28;20472;-61
2023/06/11 09:59:48;;;;;;;11.93;11.03;;;29.20;61.50;;;;;;4954094;28;20420;-61
2023/06/11 10:02:14;;;;;;;11.90;10.90;;;29.20;61.70;;;;;;4954039;29;20508;-61
2023/06/11 10:04:40;;;;;;;11.70;10.77;;;29.20;60.60;;;;;;4946297;29;20437;-61
2023/06/11 10:07:09;;;;;;;11.10;10.23;;;29.20;59.90;;;;;;4953937;28;20440;-60
2023/06/11 10:09:38;;;;;;;11.03;10.33;;;29.20;62.20;;;;;;4954062;28;20766;-61
2023/06/11 10:12:06;;;;;;;10.30;9.63;;;29.30;59.50;;;;;;4954383;28;20425;-61
2023/06/11 10:14:37;;;;;;;10.60;9.90;;;29.30;58.90;;;;;;4954078;28;20404;-61
2023/06/11 10:17:08;;;;;;;10.47;9.87;;;29.30;58.60;;;;;;4954431;29;20457;-61
2023/06/11 10:19:36;;;;;;;11.70;11.00;;;29.20;58.80;;;;;;4953977;29;20393;-61
2023/06/11 10:22:02;;;;;;;11.70;10.90;;;29.20;58.70;;;;;;4954533;28;20834;-61
2023/06/11 10:24:28;;;;;;;11.50;10.70;;;29.30;59.00;;;;;;4954444;28;20911;-61
2023/06/11 10:27:12;;;;;;;11.50;10.80;;;29.30;59.60;;;;;;4954780;28;20421;-61
2023/06/11 10:29:48;;;;;;;12.00;11.20;;;29.30;58.40;;;;;;4953812;28;20441;-61
2023/06/11 10:32:22;;;;;;;11.10;10.30;;;29.40;57.00;;;;;;4953874;28;20416;-61
2023/06/11 10:34:53;;;;;;;11.43;10.53;;;29.50;58.60;;;;;;4953546;28;20508;-62
2023/06/11 10:37:40;;;;;;;44.30;39.63;;;29.70;59.30;;;;;;4954071;28;20971;-62
2023/06/11 10:40:08;;;;;;;30.57;27.77;;;29.70;57.00;;;;;;4954408;28;20393;-61
2023/06/11 10:42:38;;;;;;;15.23;14.10;;;29.80;57.20;;;;;;4953563;28;20408;-62
2023/06/11 10:45:08;;;;;;;10.87;10.07;;;29.90;57.40;;;;;;4952998;29;20540;-62
2023/06/11 10:47:49;;;;;;;10.80;10.10;;;29.90;56.90;;;;;;4953744;28;20560;-66
2023/06/11 10:50:30;;;;;;;11.40;10.50;;;30.10;56.80;;;;;;4951420;28;20439;-65
2023/06/11 10:52:58;;;;;;;11.10;10.40;;;30.20;57.00;;;;;;4949498;28;20428;-64
2023/06/11 10:55:29;;;;;;;12.63;11.73;;;30.30;55.00;;;;;;4952568;28;20429;-60
2023/06/11 10:57:56;;;;;;;11.80;11.00;;;30.30;55.30;;;;;;4953498;28;20409;-60
2023/06/11 11:00:22;;;;;;;11.80;11.00;;;30.30;54.70;;;;;;4955576;28;20420;-60
2023/06/11 11:02:50;;;;;;;11.70;10.53;;;30.30;56.50;;;;;;4956509;28;20409;-60
2023/06/11 11:05:16;;;;;;;12.00;11.07;;;30.40;54.90;;;;;;4957248;28;20428;-61
2023/06/11 11:07:45;;;;;;;10.60;9.90;;;30.40;53.70;;;;;;4956559;28;20495;-61
2023/06/11 11:10:13;;;;;;;11.50;10.60;;;30.30;53.10;;;;;;4957249;28;20172;-60
2023/06/11 11:12:44;;;;;;;11.00;10.20;;;30.30;55.10;;;;;;4956620;28;20421;-61
2023/06/11 11:15:11;;;;;;;12.27;11.27;;;30.30;56.00;;;;;;4957096;29;20405;-61
2023/06/11 11:17:40;;;;;;;10.53;9.83;;;30.40;54.50;;;;;;4956077;28;20479;-60
2023/06/11 11:20:10;;;;;;;10.60;9.80;;;30.40;54.90;;;;;;4956144;28;20408;-61
2023/06/11 11:22:37;;;;;;;11.33;10.53;;;30.30;55.20;;;;;;4937182;29;20473;-61
2023/06/11 11:25:05;;;;;;;11.17;10.37;;;30.40;53.80;;;;;;4954120;29;20839;-60
2023/06/11 11:27:32;;;;;;;11.20;10.50;;;30.50;54.40;;;;;;4956118;29;20468;-60
2023/06/11 11:29:59;;;;;;;13.40;12.17;;;30.70;55.60;;;;;;4956445;29;20972;-60
2023/06/11 11:32:33;;;;;;;12.60;11.53;;;30.80;55.50;;;;;;4956386;28;20424;-60
2023/06/11 11:35:00;;;;;;;11.43;10.57;;;30.90;55.30;;;;;;4956031;28;20428;-60
2023/06/11 11:37:30;;;;;;;47.97;43.67;;;30.90;50.30;;;;;;4955578;29;20960;-60
2023/06/11 11:39:56;;;;;;;20.47;18.83;;;30.80;51.80;;;;;;4954838;28;20429;-60
2023/06/11 11:42:25;;;;;;;13.50;12.50;;;30.80;53.40;;;;;;4956159;29;20432;-60
2023/06/11 11:44:53;;;;;;;11.47;10.67;;;30.80;51.70;;;;;;4955784;28;20449;-60
2023/06/11 11:47:21;;;;;;;10.90;10.20;;;30.50;51.00;;;;;;4956496;28;20428;-60
2023/06/11 11:49:56;;;;;;;11.93;10.97;;;30.20;51.20;;;;;;4954939;29;20419;-60
2023/06/11 11:52:23;;;;;;;10.87;10.17;;;30.00;52.00;;;;;;4957012;28;20434;-60
2023/06/11 11:54:50;;;;;;;11.43;10.63;;;29.90;52.40;;;;;;4955196;28;20429;-60
2023/06/11 11:57:20;;;;;;;10.53;9.90;;;29.70;51.00;;;;;;4956786;28;20456;-60
2023/06/11 11:59:49;;;;;;;11.47;10.60;;;29.60;50.20;;;;;;4956223;28;20463;-60
2023/06/11 12:02:15;;;;;;;10.30;9.60;;;29.40;50.40;;;;;;4956782;28;20416;-60
2023/06/11 12:04:45;;;;;;;10.27;9.57;;;29.30;51.10;;;;;;4956018;29;20416;-60
2023/06/11 12:07:13;;;;;;;11.13;10.23;;;29.20;52.40;;;;;;4956634;28;20174;-60
2023/06/11 12:09:42;;;;;;;11.40;10.60;;;29.20;51.50;;;;;;4956118;28;20432;-60
2023/06/11 12:12:08;;;;;;;11.53;10.73;;;29.00;52.30;;;;;;4955407;28;20405;-60
2023/06/11 12:14:35;;;;;;;10.37;9.67;;;29.00;53.20;;;;;;4955323;29;20557;-60
2023/06/11 12:17:01;;;;;;;11.70;10.80;;;28.90;52.00;;;;;;4956122;29;20968;-63
2023/06/11 12:19:31;;;;;;;11.20;10.40;;;28.80;52.70;;;;;;4956165;28;20401;-63
2023/06/11 12:21:57;;;;;;;11.53;10.73;;;28.90;53.30;;;;;;4955654;28;20479;-62
2023/06/11 12:24:23;;;;;;;38.53;34.83;;;29.00;52.80;;;;;;4956393;29;20412;-62
2023/06/11 12:26:53;;;;;;;39.57;35.57;;;29.00;53.60;;;;;;4954404;28;20976;-61
2023/06/11 12:29:19;;;;;;;34.40;31.00;;;29.00;52.90;;;;;;4956343;28;20956;-62